Time;durP1;ratioP1;P1;durP2;ratioP2;P2;SDS_P1;SDS_P2;PMS_P1;PMS_P2;Temp;Humidity;BMP_temperature;BMP_pressure;BME280_temperature;BME280_humidity;BME280_pressure;Samples;Min_cycle;Max_cycle;Signal;HPM_P1;HPM_P2
2022/08/23 00:01:25;;;;;;;31.47;18.80;;;;;;;;;;5050610;28;20418;-61
2022/08/23 00:03:52;;;;;;;27.17;15.90;;;;;;;;;;5050374;28;20082;-61
2022/08/23 00:06:20;;;;;;;27.47;16.03;;;;;;;;;;5049665;28;20045;-61
2022/08/23 00:08:47;;;;;;;28.30;16.90;;;;;;;;;;5049753;28;20052;-61
2022/08/23 00:11:28;;;;;;;26.27;16.23;;;;;;;;;;5050092;28;20387;-61
2022/08/23 00:13:54;;;;;;;23.20;15.47;;;;;;;;;;5050157;28;20507;-61
2022/08/23 00:16:21;;;;;;;27.23;15.07;;;;;;;;;;5050075;28;20102;-61
2022/08/23 00:18:47;;;;;;;25.47;16.60;;;;;;;;;;5050049;28;20056;-61
2022/08/23 00:21:13;;;;;;;21.87;13.63;;;;;;;;;;5049401;28;20033;-61
2022/08/23 00:23:40;;;;;;;25.67;16.53;;;;;;;;;;5050199;28;20055;-61
2022/08/23 00:26:06;;;;;;;25.00;14.00;;;;;;;;;;5049620;28;20056;-61
2022/08/23 00:28:32;;;;;;;26.00;17.13;;;;;;;;;;5048921;28;20064;-61
2022/08/23 00:30:59;;;;;;;29.00;15.57;;;;;;;;;;5050210;28;20076;-61
2022/08/23 00:33:25;;;;;;;29.43;16.17;;;;;;;;;;5049193;28;20109;-61
2022/08/23 00:35:51;;;;;;;26.40;15.20;;;;;;;;;;5049730;28;20461;-61
2022/08/23 00:38:17;;;;;;;27.17;16.33;;;;;;;;;;5049813;28;20048;-61
2022/08/23 00:40:49;;;;;;;24.50;15.30;;;;;;;;;;5049407;28;20422;-61
2022/08/23 00:48:57;;;;;;;25.50;15.43;;;;;;;;;;5049320;28;20045;-61
2022/08/23 00:51:27;;;;;;;23.67;13.43;;;;;;;;;;5049176;28;20094;-61
2022/08/23 00:53:55;;;;;;;29.40;14.43;;;;;;;;;;5049574;28;20455;-61
2022/08/23 00:56:22;;;;;;;22.50;14.50;;;;;;;;;;5049478;28;20430;-61
2022/08/23 00:58:48;;;;;;;22.47;14.43;;;;;;;;;;5049448;28;20136;-61
2022/08/23 01:01:15;;;;;;;29.40;15.67;;;;;;;;;;5048758;28;20131;-61
2022/08/23 01:03:42;;;;;;;26.73;16.97;;;;;;;;;;5049379;28;20143;-61
2022/08/23 01:06:31;;;;;;;30.43;16.47;;;;;;;;;;5049337;28;20053;-61
2022/08/23 01:09:00;;;;;;;25.23;15.80;;;;;;;;;;5048776;28;20045;-61
2022/08/23 01:11:31;;;;;;;25.80;16.90;;;;;;;;;;5048409;28;20041;-61
2022/08/23 01:14:10;;;;;;;31.53;18.90;;;;;;;;;;5049040;28;20070;-61
2022/08/23 01:16:39;;;;;;;30.70;17.50;;;;;;;;;;5049005;28;20057;-61
2022/08/23 01:19:12;;;;;;;27.27;17.63;;;;;;;;;;5048726;28;20048;-61
2022/08/23 01:21:45;;;;;;;32.95;17.40;;;;;;;;;;5049064;28;20052;-61
2022/08/23 01:24:11;;;;;;;36.90;18.15;;;;;;;;;;5048609;28;20055;-61
2022/08/23 01:26:38;;;;;;;32.97;18.60;;;;;;;;;;5048691;28;20045;-61
2022/08/23 01:29:05;;;;;;;31.80;18.97;;;;;;;;;;5048113;28;20103;-61
2022/08/23 01:31:31;;;;;;;43.13;20.13;;;;;;;;;;5048753;28;20792;-61
2022/08/23 01:34:00;;;;;;;25.83;18.30;;;;;;;;;;5049003;28;20090;-61
2022/08/23 01:36:27;;;;;;;33.83;18.23;;;;;;;;;;5049038;28;20503;-61
2022/08/23 01:38:53;;;;;;;36.30;20.27;;;;;;;;;;5048469;28;20566;-61
2022/08/23 01:41:20;;;;;;;32.20;20.23;;;;;;;;;;5048305;28;20128;-61
2022/08/23 01:43:46;;;;;;;30.43;19.10;;;;;;;;;;5048437;28;20036;-61
2022/08/23 01:46:14;;;;;;;29.20;18.77;;;;;;;;;;5048313;28;20049;-61
2022/08/23 01:48:40;;;;;;;22.03;16.37;;;;;;;;;;5048715;28;20509;-61
2022/08/23 01:51:06;;;;;;;25.37;17.20;;;;;;;;;;5048273;28;20049;-61
2022/08/23 01:53:33;;;;;;;23.27;15.67;;;;;;;;;;5047629;28;20107;-61
2022/08/23 01:56:00;;;;;;;21.40;14.63;;;;;;;;;;5048591;28;20087;-61
2022/08/23 01:58:27;;;;;;;18.43;13.43;;;;;;;;;;5048566;28;20056;-61
2022/08/23 02:00:53;;;;;;;21.93;15.17;;;;;;;;;;5048330;28;20064;-61
2022/08/23 02:03:20;;;;;;;33.57;20.40;;;;;;;;;;5047574;28;20414;-61
2022/08/23 02:05:46;;;;;;;38.30;20.60;;;;;;;;;;5047266;28;20064;-61
2022/08/23 02:10:58;;;;;;;39.10;20.30;;;;;;;;;;5048060;28;20053;-61
2022/08/23 02:13:24;;;;;;;28.77;17.50;;;;;;;;;;5048371;28;20143;-61
2022/08/23 02:15:51;;;;;;;30.73;18.53;;;;;;;;;;5047792;28;20536;-61
2022/08/23 02:18:18;;;;;;;26.10;14.83;;;;;;;;;;5047869;28;20056;-61
2022/08/23 02:20:49;;;;;;;26.63;16.47;;;;;;;;;;5047731;28;20040;-61
2022/08/23 02:23:15;;;;;;;24.37;13.53;;;;;;;;;;5048285;28;20053;-61
2022/08/23 02:25:42;;;;;;;15.40;11.20;;;;;;;;;;5048329;28;20049;-61
2022/08/23 02:28:08;;;;;;;26.27;15.27;;;;;;;;;;5047847;28;20119;-61
2022/08/23 02:30:35;;;;;;;31.47;18.73;;;;;;;;;;5048040;28;20052;-61
2022/08/23 02:33:01;;;;;;;29.73;18.40;;;;;;;;;;5051357;28;20427;-61
2022/08/23 02:35:27;;;;;;;33.33;20.80;;;;;;;;;;5054771;28;20045;-61
2022/08/23 02:37:53;;;;;;;31.77;19.40;;;;;;;;;;5054199;28;20045;-61
2022/08/23 02:40:19;;;;;;;32.73;19.30;;;;;;;;;;5054272;28;20503;-61
2022/08/23 02:42:46;;;;;;;30.00;17.53;;;;;;;;;;5054095;28;20076;-61
2022/08/23 02:45:13;;;;;;;29.53;18.50;;;;;;;;;;5054365;28;20467;-61
2022/08/23 02:47:39;;;;;;;28.60;17.57;;;;;;;;;;5054160;28;20047;-61
2022/08/23 02:50:06;;;;;;;35.57;22.13;;;;;;;;;;5054108;28;20106;-61
2022/08/23 02:52:33;;;;;;;40.73;19.03;;;;;;;;;;5054217;28;20620;-61
2022/08/23 02:54:59;;;;;;;51.90;18.33;;;;;;;;;;5054016;28;20052;-61
2022/08/23 02:57:25;;;;;;;25.23;15.13;;;;;;;;;;5053860;28;20068;-61
2022/08/23 02:59:52;;;;;;;28.17;15.17;;;;;;;;;;5054202;28;20530;-61
2022/08/23 03:02:18;;;;;;;32.17;16.30;;;;;;;;;;5053716;28;20071;-61
2022/08/23 03:04:44;;;;;;;25.10;15.97;;;;;;;;;;5054110;28;20041;-61
2022/08/23 03:07:10;;;;;;;32.83;20.40;;;;;;;;;;5054353;28;20037;-61
2022/08/23 03:09:36;;;;;;;24.33;15.57;;;;;;;;;;5054328;28;20056;-61
2022/08/23 03:12:02;;;;;;;56.70;19.07;;;;;;;;;;5053969;28;20083;-61
2022/08/23 03:14:28;;;;;;;46.40;21.03;;;;;;;;;;5053678;28;20052;-61
2022/08/23 03:16:55;;;;;;;37.10;17.63;;;;;;;;;;5054251;28;20041;-61
2022/08/23 03:19:21;;;;;;;31.50;18.33;;;;;;;;;;5053899;28;20044;-61
2022/08/23 03:21:47;;;;;;;37.17;20.87;;;;;;;;;;5054101;28;20053;-61
2022/08/23 03:24:14;;;;;;;24.10;14.57;;;;;;;;;;5053893;28;20072;-60
2022/08/23 03:26:41;;;;;;;21.47;10.80;;;;;;;;;;5054073;28;20095;-61
2022/08/23 03:29:08;;;;;;;28.43;11.03;;;;;;;;;;5054012;28;20068;-61
2022/08/23 03:31:34;;;;;;;39.53;15.77;;;;;;;;;;5054466;28;20088;-61
2022/08/23 03:34:00;;;;;;;20.50;12.70;;;;;;;;;;5053771;28;20049;-61
2022/08/23 03:36:45;;;;;;;26.37;16.13;;;;;;;;;;5053648;28;20386;-60
2022/08/23 03:39:11;;;;;;;20.53;13.20;;;;;;;;;;5054009;28;20091;-61
2022/08/23 03:41:37;;;;;;;22.00;14.93;;;;;;;;;;5053930;28;20047;-61
2022/08/23 03:44:04;;;;;;;31.23;20.57;;;;;;;;;;5050933;28;20049;-61
2022/08/23 03:46:30;;;;;;;28.13;16.93;;;;;;;;;;5050201;28;20423;-61
2022/08/23 03:48:58;;;;;;;22.70;15.13;;;;;;;;;;5050100;28;20529;-61
2022/08/23 03:51:25;;;;;;;27.60;17.73;;;;;;;;;;5050746;28;20544;-61
2022/08/23 03:53:51;;;;;;;19.83;13.60;;;;;;;;;;5050673;28;20045;-61
2022/08/23 03:56:34;;;;;;;27.80;17.13;;;;;;;;;;5050417;28;20462;-61
2022/08/23 03:59:01;;;;;;;21.20;15.10;;;;;;;;;;5050301;28;20059;-61
2022/08/23 04:01:27;;;;;;;24.73;16.13;;;;;;;;;;5050618;28;20052;-61
2022/08/23 04:03:54;;;;;;;33.60;17.17;;;;;;;;;;5050294;28;20099;-61
2022/08/23 04:06:20;;;;;;;30.50;18.23;;;;;;;;;;5050616;28;20047;-61
2022/08/23 04:08:46;;;;;;;20.33;13.83;;;;;;;;;;5050511;28;20094;-61
2022/08/23 04:11:13;;;;;;;20.73;14.33;;;;;;;;;;5050569;28;20080;-61
2022/08/23 04:13:40;;;;;;;28.10;17.57;;;;;;;;;;5050026;28;20564;-61
2022/08/23 04:16:07;;;;;;;29.23;19.27;;;;;;;;;;5049996;28;20137;-61
2022/08/23 04:18:34;;;;;;;30.17;18.33;;;;;;;;;;5050199;28;20104;-61
2022/08/23 04:21:02;;;;;;;48.30;25.77;;;;;;;;;;5050290;28;20127;-61
2022/08/23 04:23:28;;;;;;;65.63;36.33;;;;;;;;;;5049654;28;20416;-61
2022/08/23 04:25:54;;;;;;;42.87;24.53;;;;;;;;;;5049523;28;20382;-61
2022/08/23 04:28:21;;;;;;;36.20;23.43;;;;;;;;;;5049715;28;20122;-61
2022/08/23 04:30:47;;;;;;;34.07;20.97;;;;;;;;;;5049927;28;20636;-61
2022/08/23 04:33:13;;;;;;;40.23;22.30;;;;;;;;;;5049899;28;20087;-61
2022/08/23 04:35:41;;;;;;;46.67;26.33;;;;;;;;;;5049870;28;20041;-61
2022/08/23 04:38:07;;;;;;;44.63;27.27;;;;;;;;;;5049582;28;20050;-61
2022/08/23 04:43:18;;;;;;;50.70;27.77;;;;;;;;;;5049215;28;20049;-61
2022/08/23 04:45:44;;;;;;;47.00;26.60;;;;;;;;;;5048823;28;20142;-62
2022/08/23 04:48:10;;;;;;;38.23;24.37;;;;;;;;;;5049545;28;20056;-61
2022/08/23 04:50:36;;;;;;;48.00;27.60;;;;;;;;;;5049089;28;20552;-61
2022/08/23 04:53:03;;;;;;;52.17;30.50;;;;;;;;;;5049200;28;20085;-61
2022/08/23 04:55:29;;;;;;;52.77;31.13;;;;;;;;;;5048444;28;20059;-61
2022/08/23 04:57:55;;;;;;;52.60;29.93;;;;;;;;;;5048588;28;20467;-61
2022/08/23 05:00:21;;;;;;;55.97;33.67;;;;;;;;;;5049226;28;20045;-61
2022/08/23 05:02:48;;;;;;;60.43;34.57;;;;;;;;;;5049155;28;20106;-61
2022/08/23 05:05:14;;;;;;;72.07;38.17;;;;;;;;;;5049171;28;20101;-61
2022/08/23 05:07:40;;;;;;;47.40;28.53;;;;;;;;;;5048978;28;20049;-61
2022/08/23 05:10:07;;;;;;;53.97;32.57;;;;;;;;;;5048845;28;20159;-61
2022/08/23 05:12:34;;;;;;;55.33;31.17;;;;;;;;;;5048201;28;20037;-61
2022/08/23 05:15:00;;;;;;;56.17;32.27;;;;;;;;;;5047522;28;20052;-61
2022/08/23 05:17:26;;;;;;;39.30;25.47;;;;;;;;;;5049095;28;20087;-61
2022/08/23 05:19:52;;;;;;;45.73;26.13;;;;;;;;;;5048141;28;20037;-61
2022/08/23 05:22:18;;;;;;;54.07;29.23;;;;;;;;;;5048319;28;20044;-61
2022/08/23 05:24:44;;;;;;;44.80;25.87;;;;;;;;;;5048766;28;20053;-61
2022/08/23 05:27:10;;;;;;;49.57;30.57;;;;;;;;;;5048810;28;20048;-61
2022/08/23 05:29:36;;;;;;;50.90;32.07;;;;;;;;;;5047883;28;20061;-61
2022/08/23 05:32:02;;;;;;;63.87;33.07;;;;;;;;;;5048383;28;20099;-61
2022/08/23 05:34:28;;;;;;;48.90;31.13;;;;;;;;;;5048690;28;20045;-61
2022/08/23 05:36:55;;;;;;;56.83;35.40;;;;;;;;;;5048737;28;20517;-60
2022/08/23 05:39:21;;;;;;;37.33;27.47;;;;;;;;;;5047968;28;20502;-61
2022/08/23 05:41:47;;;;;;;42.40;29.83;;;;;;;;;;5047808;28;20616;-61
2022/08/23 05:44:13;;;;;;;23.60;19.77;;;;;;;;;;5048343;28;20131;-61
2022/08/23 05:46:41;;;;;;;27.37;23.70;;;;;;;;;;5047827;28;20407;-61
2022/08/23 05:49:07;;;;;;;32.40;25.30;;;;;;;;;;5048097;28;20063;-61
2022/08/23 05:51:34;;;;;;;32.27;24.80;;;;;;;;;;5047698;28;20049;-61
2022/08/23 05:54:02;;;;;;;28.23;19.73;;;;;;;;;;5048577;28;20048;-61
2022/08/23 05:56:30;;;;;;;23.70;19.90;;;;;;;;;;5048305;28;20048;-61
2022/08/23 05:58:58;;;;;;;28.80;20.43;;;;;;;;;;5048286;28;20132;-61
2022/08/23 06:01:25;;;;;;;18.67;16.53;;;;;;;;;;5047966;28;20432;-61
2022/08/23 06:03:51;;;;;;;18.80;16.27;;;;;;;;;;5047735;28;20072;-61
2022/08/23 06:06:17;;;;;;;16.93;14.97;;;;;;;;;;5047767;28;20099;-61
2022/08/23 06:08:46;;;;;;;17.07;15.27;;;;;;;;;;5047866;28;20044;-61
2022/08/23 06:11:14;;;;;;;20.17;17.67;;;;;;;;;;5047971;28;20529;-61
2022/08/23 06:13:42;;;;;;;17.33;13.53;;;;;;;;;;5047629;28;20053;-61
2022/08/23 06:16:09;;;;;;;20.23;15.57;;;;;;;;;;5047361;28;20418;-61
2022/08/23 06:18:35;;;;;;;18.83;16.07;;;;;;;;;;5048065;28;20124;-61
2022/08/23 06:21:04;;;;;;;16.87;14.73;;;;;;;;;;5047900;28;20568;-61
2022/08/23 06:23:31;;;;;;;18.30;14.70;;;;;;;;;;5048022;28;20045;-61
2022/08/23 06:25:57;;;;;;;28.40;16.07;;;;;;;;;;5047353;28;20055;-61
2022/08/23 06:28:23;;;;;;;16.80;15.00;;;;;;;;;;5047536;28;20491;-61
2022/08/23 06:30:49;;;;;;;16.90;13.73;;;;;;;;;;5047580;28;20099;-61
2022/08/23 06:33:15;;;;;;;18.43;14.10;;;;;;;;;;5047194;28;20045;-61
2022/08/23 06:35:42;;;;;;;16.30;13.03;;;;;;;;;;5047836;28;20416;-61
2022/08/23 06:38:08;;;;;;;16.60;13.23;;;;;;;;;;5047735;28;20126;-61
2022/08/23 06:40:35;;;;;;;14.63;12.20;;;;;;;;;;5046659;28;20457;-61
2022/08/23 06:43:01;;;;;;;18.57;12.00;;;;;;;;;;5047553;28;20049;-61
2022/08/23 06:45:27;;;;;;;15.70;11.13;;;;;;;;;;5047601;28;20095;-61
2022/08/23 06:47:54;;;;;;;14.63;11.63;;;;;;;;;;5047586;28;20055;-61
2022/08/23 06:50:20;;;;;;;15.20;12.80;;;;;;;;;;5047249;28;20120;-60
2022/08/23 06:52:47;;;;;;;14.43;11.90;;;;;;;;;;5047354;28;20131;-61
2022/08/23 06:55:13;;;;;;;14.67;11.83;;;;;;;;;;5047080;28;20396;-61
2022/08/23 06:57:39;;;;;;;15.97;12.90;;;;;;;;;;5047329;28;20154;-61
2022/08/23 07:00:07;;;;;;;14.93;11.40;;;;;;;;;;5047355;28;20076;-61
2022/08/23 07:02:33;;;;;;;11.03;9.93;;;;;;;;;;5047404;28;20466;-61
2022/08/23 07:04:59;;;;;;;14.33;10.33;;;;;;;;;;5046805;28;20044;-61
2022/08/23 07:07:25;;;;;;;14.43;10.07;;;;;;;;;;5046933;28;20512;-61
2022/08/23 07:09:51;;;;;;;10.80;9.70;;;;;;;;;;5047109;28;20045;-61
2022/08/23 07:12:19;;;;;;;11.10;8.97;;;;;;;;;;5047525;28;20060;-61
2022/08/23 07:14:45;;;;;;;15.53;8.97;;;;;;;;;;5046533;28;20565;-61
2022/08/23 07:17:11;;;;;;;13.27;9.30;;;;;;;;;;5046911;28;20044;-61
2022/08/23 07:19:39;;;;;;;13.03;9.63;;;;;;;;;;5050258;28;20045;-61
2022/08/23 07:22:05;;;;;;;14.53;9.37;;;;;;;;;;5050698;28;20049;-61
2022/08/23 07:24:31;;;;;;;16.63;10.10;;;;;;;;;;5050758;28;20067;-62
2022/08/23 07:26:58;;;;;;;14.47;9.53;;;;;;;;;;5051478;28;20091;-61
2022/08/23 07:29:24;;;;;;;12.70;9.03;;;;;;;;;;5050025;28;20057;-61
2022/08/23 07:31:54;;;;;;;11.37;8.73;;;;;;;;;;5050958;28;20088;-61
2022/08/23 07:34:21;;;;;;;10.67;8.37;;;;;;;;;;5050692;28;20049;-61
2022/08/23 07:36:47;;;;;;;11.67;8.60;;;;;;;;;;5050710;28;20033;-61
2022/08/23 07:39:14;;;;;;;9.83;8.67;;;;;;;;;;5050907;28;20057;-61
2022/08/23 07:41:40;;;;;;;12.43;8.47;;;;;;;;;;5050101;28;20060;-61
2022/08/23 07:44:08;;;;;;;8.87;7.87;;;;;;;;;;5050588;28;20095;-61
2022/08/23 07:46:34;;;;;;;10.87;7.73;;;;;;;;;;5050639;28;20049;-61
2022/08/23 07:49:01;;;;;;;14.67;9.30;;;;;;;;;;5050653;28;20197;-61
2022/08/23 07:51:28;;;;;;;12.17;6.97;;;;;;;;;;5049956;28;20557;-61
2022/08/23 07:53:54;;;;;;;8.60;6.70;;;;;;;;;;5050589;28;20045;-61
2022/08/23 07:56:21;;;;;;;10.50;7.53;;;;;;;;;;5049656;28;20047;-61
2022/08/23 07:58:47;;;;;;;9.63;7.27;;;;;;;;;;5050702;28;20084;-61
2022/08/23 08:01:18;;;;;;;11.60;7.13;;;;;;;;;;5050157;28;20079;-61
2022/08/23 08:03:49;;;;;;;10.90;6.80;;;;;;;;;;5050335;28;20037;-61
2022/08/23 08:06:20;;;;;;;10.40;7.20;;;;;;;;;;5049945;28;20545;-61
2022/08/23 08:08:47;;;;;;;8.53;6.33;;;;;;;;;;5050233;28;20037;-61
2022/08/23 08:11:15;;;;;;;12.67;6.83;;;;;;;;;;5050176;28;20045;-61
2022/08/23 08:13:42;;;;;;;12.10;7.00;;;;;;;;;;5049827;28;20048;-62
2022/08/23 08:16:08;;;;;;;10.20;6.63;;;;;;;;;;5049407;28;20059;-61
2022/08/23 08:18:35;;;;;;;9.73;6.40;;;;;;;;;;5049573;28;20124;-61
2022/08/23 08:21:02;;;;;;;8.87;6.03;;;;;;;;;;5049953;28;20040;-61
2022/08/23 08:23:28;;;;;;;11.67;6.50;;;;;;;;;;5049528;28;20066;-61
2022/08/23 08:26:05;;;;;;;9.93;5.83;;;;;;;;;;5049313;28;20132;-61
2022/08/23 08:28:32;;;;;;;10.57;6.37;;;;;;;;;;5048853;28;20545;-62
2022/08/23 08:30:58;;;;;;;10.90;7.00;;;;;;;;;;5048518;28;20786;-62
2022/08/23 08:33:25;;;;;;;10.18;5.97;;;;;;;;;;5049799;28;20052;-62
2022/08/23 08:35:51;;;;;;;8.90;5.13;;;;;;;;;;5049696;28;20056;-62
2022/08/23 08:38:17;;;;;;;8.68;4.72;;;;;;;;;;5049277;28;20117;-61
2022/08/23 08:40:44;;;;;;;8.07;4.90;;;;;;;;;;5049373;28;20045;-61
2022/08/23 08:43:16;;;;;;;9.15;4.90;;;;;;;;;;5049764;28;20046;-62
2022/08/23 08:45:52;;;;;;;10.80;4.75;;;;;;;;;;5049459;28;20056;-62
2022/08/23 08:48:21;;;;;;;8.02;5.00;;;;;;;;;;5048974;28;20037;-61
2022/08/23 08:50:49;;;;;;;7.85;5.60;;;;;;;;;;5048601;28;20482;-61
2022/08/23 08:53:18;;;;;;;7.10;4.88;;;;;;;;;;5049528;28;20045;-62
2022/08/23 08:55:45;;;;;;;7.40;4.70;;;;;;;;;;5048847;28;20058;-61
2022/08/23 08:58:16;;;;;;;8.40;5.07;;;;;;;;;;5049415;28;20113;-62
2022/08/23 09:00:42;;;;;;;7.55;5.05;;;;;;;;;;5049008;28;20060;-61
2022/08/23 09:03:13;;;;;;;10.02;4.70;;;;;;;;;;5048947;28;20410;-61
2022/08/23 09:05:44;;;;;;;7.13;5.03;;;;;;;;;;5048929;28;20351;-62
2022/08/23 09:08:22;;;;;;;6.75;4.07;;;;;;;;;;5048786;28;20052;-62
2022/08/23 09:11:11;;;;;;;8.43;5.35;;;;;;;;;;5048740;28;20057;-62
2022/08/23 09:14:00;;;;;;;6.80;4.78;;;;;;;;;;5048871;28;20094;-62
2022/08/23 09:16:29;;;;;;;9.60;5.07;;;;;;;;;;5048362;28;20041;-62
2022/08/23 09:18:55;;;;;;;8.25;4.55;;;;;;;;;;5048803;28;20048;-62
2022/08/23 09:21:21;;;;;;;6.63;4.30;;;;;;;;;;5048559;28;20088;-62
2022/08/23 09:23:49;;;;;;;9.43;4.43;;;;;;;;;;5048663;28;20572;-62
2022/08/23 09:26:41;;;;;;;5.72;3.90;;;;;;;;;;5048481;28;20068;-62
2022/08/23 09:29:22;;;;;;;6.60;3.35;;;;;;;;;;5047907;28;20068;-62
2022/08/23 09:31:57;;;;;;;8.10;3.70;;;;;;;;;;5047969;28;20049;-62
2022/08/23 09:34:33;;;;;;;6.32;2.92;;;;;;;;;;5048701;28;20053;-62
2022/08/23 09:37:06;;;;;;;4.95;3.20;;;;;;;;;;5048430;28;20456;-62
2022/08/23 09:39:32;;;;;;;8.73;2.92;;;;;;;;;;5048348;28;20442;-62
2022/08/23 09:41:59;;;;;;;6.35;3.55;;;;;;;;;;5047846;28;20045;-62
2022/08/23 09:44:36;;;;;;;6.57;3.30;;;;;;;;;;5048144;28;20052;-62
2022/08/23 09:47:10;;;;;;;7.60;3.17;;;;;;;;;;5047859;28;20055;-62
2022/08/23 09:49:38;;;;;;;6.28;3.70;;;;;;;;;;5048337;28;20057;-63
2022/08/23 09:52:16;;;;;;;5.30;3.10;;;;;;;;;;5047872;28;20052;-62
2022/08/23 09:54:42;;;;;;;7.38;3.13;;;;;;;;;;5048305;28;20092;-62
2022/08/23 09:57:09;;;;;;;6.30;3.15;;;;;;;;;;5046788;28;20064;-62
2022/08/23 09:59:41;;;;;;;8.75;3.55;;;;;;;;;;5047777;28;20090;-62
2022/08/23 10:02:12;;;;;;;9.25;3.00;;;;;;;;;;5047612;28;20045;-62
2022/08/23 10:04:54;;;;;;;5.95;3.40;;;;;;;;;;5046835;28;20495;-62
2022/08/23 10:07:34;;;;;;;7.40;3.45;;;;;;;;;;5047074;28;20037;-62
2022/08/23 10:10:19;;;;;;;5.97;4.20;;;;;;;;;;5047763;28;20049;-62
2022/08/23 10:12:46;;;;;;;9.15;4.30;;;;;;;;;;5047796;28;20053;-62
2022/08/23 10:15:13;;;;;;;8.43;4.60;;;;;;;;;;5047961;28;20135;-62
2022/08/23 10:17:51;;;;;;;8.10;4.53;;;;;;;;;;5047575;28;20041;-62
2022/08/23 10:20:25;;;;;;;9.98;4.07;;;;;;;;;;5047241;28;20057;-62
2022/08/23 10:22:55;;;;;;;8.82;4.80;;;;;;;;;;5047450;28;20041;-62
2022/08/23 10:25:21;;;;;;;7.25;3.67;;;;;;;;;;5048006;28;20131;-62
2022/08/23 10:30:53;;;;;;;7.93;3.40;;;;;;;;;;5047035;28;20052;-62
2022/08/23 10:33:26;;;;;;;9.00;3.60;;;;;;;;;;5047374;28;20048;-62
2022/08/23 10:36:01;;;;;;;7.60;3.80;;;;;;;;;;5048118;28;20056;-62
2022/08/23 10:38:28;;;;;;;6.75;3.13;;;;;;;;;;5047576;28;20495;-62
2022/08/23 10:41:03;;;;;;;7.10;3.65;;;;;;;;;;5047151;28;20049;-62
2022/08/23 10:43:38;;;;;;;6.78;3.40;;;;;;;;;;5047133;28;20046;-62
2022/08/23 10:46:06;;;;;;;7.15;2.97;;;;;;;;;;5047364;28;20048;-62
2022/08/23 10:48:35;;;;;;;8.52;3.38;;;;;;;;;;5047394;28;20041;-63
2022/08/23 10:51:12;;;;;;;7.03;2.42;;;;;;;;;;5047479;28;20503;-62
2022/08/23 10:53:45;;;;;;;6.88;2.85;;;;;;;;;;5048868;28;20430;-62
2022/08/23 10:56:16;;;;;;;5.55;2.95;;;;;;;;;;5051942;28;20052;-62
2022/08/23 10:58:51;;;;;;;5.97;2.42;;;;;;;;;;5050878;28;20030;-63
2022/08/23 11:01:22;;;;;;;6.57;2.42;;;;;;;;;;5051195;28;20575;-62
2022/08/23 11:04:02;;;;;;;7.18;2.72;;;;;;;;;;5052107;28;20144;-62
2022/08/23 11:06:34;;;;;;;6.32;2.40;;;;;;;;;;5051230;28;20052;-62
2022/08/23 11:09:03;;;;;;;4.57;2.30;;;;;;;;;;5051192;28;20526;-62
2022/08/23 11:11:45;;;;;;;5.68;2.75;;;;;;;;;;5050811;28;20052;-62
2022/08/23 11:14:26;;;;;;;4.18;1.73;;;;;;;;;;5051290;28;20452;-62
2022/08/23 11:16:58;;;;;;;6.30;2.00;;;;;;;;;;5050148;28;20045;-62
2022/08/23 11:19:43;;;;;;;4.57;2.03;;;;;;;;;;5050896;28;20048;-62
2022/08/23 11:22:13;;;;;;;6.10;2.47;;;;;;;;;;5050876;28;20052;-62
2022/08/23 11:24:55;;;;;;;4.32;1.73;;;;;;;;;;5051301;28;20433;-62
2022/08/23 11:27:27;;;;;;;4.75;1.95;;;;;;;;;;5050514;28;20049;-62
2022/08/23 11:29:54;;;;;;;4.95;2.05;;;;;;;;;;5051008;28;20119;-62
2022/08/23 11:32:26;;;;;;;6.63;2.47;;;;;;;;;;5050357;28;20084;-62
2022/08/23 11:35:26;;;;;;;5.55;1.88;;;;;;;;;;5050482;28;20140;-62
2022/08/23 11:37:55;;;;;;;6.63;2.55;;;;;;;;;;5037570;28;20045;-62
2022/08/23 11:40:42;;;;;;;5.60;1.92;;;;;;;;;;5050491;28;20048;-62
2022/08/23 11:43:18;;;;;;;6.10;1.92;;;;;;;;;;5050777;28;21307;-62
2022/08/23 11:45:46;;;;;;;4.25;1.75;;;;;;;;;;5050951;28;20122;-63
2022/08/23 11:48:32;;;;;;;5.57;1.85;;;;;;;;;;5050116;28;20048;-63
2022/08/23 11:51:15;;;;;;;5.78;2.13;;;;;;;;;;5049928;28;20160;-62
2022/08/23 11:53:41;;;;;;;5.40;2.13;;;;;;;;;;5050175;28;20534;-63
2022/08/23 11:56:20;;;;;;;8.13;2.45;;;;;;;;;;5049717;28;20036;-62
2022/08/23 11:58:46;;;;;;;5.10;2.10;;;;;;;;;;5050384;28;20045;-63
2022/08/23 12:01:13;;;;;;;5.20;2.40;;;;;;;;;;5050381;28;20056;-63
2022/08/23 12:03:57;;;;;;;5.20;2.08;;;;;;;;;;5050374;28;20041;-62
2022/08/23 12:06:24;;;;;;;4.57;2.28;;;;;;;;;;5049378;28;20052;-63
2022/08/23 12:08:54;;;;;;;6.30;2.00;;;;;;;;;;5049264;28;20053;-62
2022/08/23 12:11:21;;;;;;;7.35;2.30;;;;;;;;;;5049698;28;20041;-63
2022/08/23 12:13:56;;;;;;;5.90;1.92;;;;;;;;;;5050458;28;20393;-62
2022/08/23 12:16:27;;;;;;;8.32;2.80;;;;;;;;;;5049709;28;20053;-62
2022/08/23 12:18:56;;;;;;;4.38;2.30;;;;;;;;;;5050027;28;20063;-62
2022/08/23 12:21:40;;;;;;;7.35;2.53;;;;;;;;;;5050170;28;20060;-62
2022/08/23 12:24:24;;;;;;;5.78;2.25;;;;;;;;;;5049645;28;20063;-62
2022/08/23 12:26:59;;;;;;;7.88;2.33;;;;;;;;;;5049311;28;20095;-62
2022/08/23 12:29:37;;;;;;;8.70;2.20;;;;;;;;;;5049433;28;20092;-62
2022/08/23 12:32:16;;;;;;;6.45;2.10;;;;;;;;;;5049577;28;20053;-62
2022/08/23 12:34:45;;;;;;;9.13;2.13;;;;;;;;;;5049748;28;20712;-62
2022/08/23 12:37:23;;;;;;;6.13;2.20;;;;;;;;;;5049242;28;20056;-62
2022/08/23 12:39:50;;;;;;;6.10;2.30;;;;;;;;;;5049290;28;20045;-62
2022/08/23 12:42:19;;;;;;;3.38;2.25;;;;;;;;;;5049715;28;20045;-62
2022/08/23 12:44:46;;;;;;;8.75;2.10;;;;;;;;;;5049779;28;20136;-62
2022/08/23 12:47:23;;;;;;;6.28;2.17;;;;;;;;;;5049450;28;20060;-62
2022/08/23 12:49:57;;;;;;;7.88;1.80;;;;;;;;;;5049329;28;20057;-62
2022/08/23 12:52:25;;;;;;;4.38;2.10;;;;;;;;;;5049573;28;20040;-62
2022/08/23 12:54:53;;;;;;;6.45;2.30;;;;;;;;;;5049612;28;20466;-62
2022/08/23 12:57:22;;;;;;;7.57;2.15;;;;;;;;;;5048805;28;20045;-62
2022/08/23 12:59:58;;;;;;;5.63;2.45;;;;;;;;;;5049237;28;20052;-62
2022/08/23 13:02:26;;;;;;;5.78;2.47;;;;;;;;;;5049371;28;20509;-62
2022/08/23 13:04:53;;;;;;;5.25;2.40;;;;;;;;;;5049505;28;20090;-63
2022/08/23 13:07:21;;;;;;;12.55;2.70;;;;;;;;;;5049640;28;20554;-62
2022/08/23 13:09:48;;;;;;;9.77;3.28;;;;;;;;;;5048456;28;20048;-62
2022/08/23 13:12:16;;;;;;;6.10;2.45;;;;;;;;;;5048875;28;20380;-62
2022/08/23 13:14:44;;;;;;;8.27;2.95;;;;;;;;;;5049421;28;20037;-62
2022/08/23 13:17:19;;;;;;;7.18;2.50;;;;;;;;;;5048825;28;20090;-62
2022/08/23 13:19:46;;;;;;;5.70;2.20;;;;;;;;;;5048455;28;20041;-62
2022/08/23 13:22:18;;;;;;;7.18;2.92;;;;;;;;;;5049271;28;20089;-62
2022/08/23 13:24:56;;;;;;;5.55;2.35;;;;;;;;;;5048468;28;20044;-62
2022/08/23 13:27:26;;;;;;;7.22;2.90;;;;;;;;;;5048704;28;20179;-62
2022/08/23 13:29:54;;;;;;;9.90;2.58;;;;;;;;;;5048666;28;20079;-62
2022/08/23 13:32:32;;;;;;;6.05;2.63;;;;;;;;;;5048130;28;20068;-62
2022/08/23 13:35:17;;;;;;;6.22;2.75;;;;;;;;;;5048141;28;20059;-62
2022/08/23 13:37:45;;;;;;;8.25;2.88;;;;;;;;;;5048846;28;20521;-62
2022/08/23 13:40:15;;;;;;;6.63;2.60;;;;;;;;;;5048501;28;20123;-62
2022/08/23 13:42:41;;;;;;;4.78;2.13;;;;;;;;;;5048012;28;20078;-62
2022/08/23 13:45:28;;;;;;;6.30;2.30;;;;;;;;;;5048409;28;20044;-62
2022/08/23 13:47:56;;;;;;;11.30;2.80;;;;;;;;;;5048214;28;20036;-62
2022/08/23 13:50:32;;;;;;;5.15;2.70;;;;;;;;;;5047879;28;20475;-62
2022/08/23 13:52:59;;;;;;;6.55;2.78;;;;;;;;;;5047978;28;20056;-61
2022/08/23 13:55:26;;;;;;;7.05;2.42;;;;;;;;;;5047939;28;20386;-62
2022/08/23 13:57:52;;;;;;;5.75;2.10;;;;;;;;;;5048088;28;20611;-62
2022/08/23 14:00:18;;;;;;;6.68;2.35;;;;;;;;;;5048237;28;20061;-62
2022/08/23 14:02:47;;;;;;;8.40;2.78;;;;;;;;;;5048104;28;20033;-62
2022/08/23 14:05:14;;;;;;;7.32;2.65;;;;;;;;;;5047816;28;20574;-62
2022/08/23 14:07:40;;;;;;;7.80;2.47;;;;;;;;;;5048093;28;20077;-62
2022/08/23 14:10:06;;;;;;;4.28;2.47;;;;;;;;;;5047260;28;20628;-62
2022/08/23 14:12:33;;;;;;;7.72;2.70;;;;;;;;;;5048187;28;20132;-62
2022/08/23 14:15:01;;;;;;;10.07;3.25;;;;;;;;;;5047961;28;20048;-62
2022/08/23 14:17:27;;;;;;;7.43;2.55;;;;;;;;;;5047677;28;20045;-62
2022/08/23 14:19:53;;;;;;;5.63;2.00;;;;;;;;;;5047323;28;20048;-62
2022/08/23 14:22:19;;;;;;;5.28;2.30;;;;;;;;;;5047225;28;20053;-62
2022/08/23 14:24:45;;;;;;;4.32;2.17;;;;;;;;;;5047689;28;20045;-62
2022/08/23 14:27:12;;;;;;;5.78;2.10;;;;;;;;;;5047452;28;20049;-62
2022/08/23 14:29:38;;;;;;;6.13;1.83;;;;;;;;;;5046360;28;20053;-63
2022/08/23 14:32:04;;;;;;;6.55;2.75;;;;;;;;;;5047659;28;20053;-62
2022/08/23 14:34:30;;;;;;;7.47;2.90;;;;;;;;;;5048078;28;20049;-62
2022/08/23 14:36:57;;;;;;;7.15;2.65;;;;;;;;;;5047070;28;20063;-62
2022/08/23 14:39:23;;;;;;;6.80;2.85;;;;;;;;;;5047547;28;20041;-62
2022/08/23 14:41:49;;;;;;;7.80;2.30;;;;;;;;;;5047558;28;20462;-62
2022/08/23 14:44:16;;;;;;;7.50;2.40;;;;;;;;;;5047719;28;20103;-62
2022/08/23 14:46:43;;;;;;;7.72;2.63;;;;;;;;;;5048073;28;20045;-62
2022/08/23 14:49:09;;;;;;;5.57;2.35;;;;;;;;;;5047126;28;20095;-62
2022/08/23 14:51:37;;;;;;;7.82;2.78;;;;;;;;;;5047777;28;20575;-62
2022/08/23 14:54:03;;;;;;;4.18;2.25;;;;;;;;;;5047127;28;20063;-62